Time;durP1;ratioP1;P1;durP2;ratioP2;P2;SDS_P1;SDS_P2;PMS_P1;PMS_P2;Temp;Humidity;BMP_temperature;BMP_pressure;BME280_temperature;BME280_humidity;BME280_pressure;Samples;Min_cycle;Max_cycle;Signal;HPM_P1;HPM_P2
2021/10/13 00:00:26;;;;;;;;;11.00;10.75;;;;;13.33;85.94;102080.84;4962034;28;45420;-59
2021/10/13 00:02:52;;;;;;;;;13.00;12.00;;;;;13.31;86.17;102081.78;4962019;28;45424;-59
2021/10/13 00:05:17;;;;;;;;;10.75;9.25;;;;;13.27;85.73;102086.19;4961190;28;45336;-59
2021/10/13 00:07:42;;;;;;;;;17.50;13.25;;;;;13.22;86.10;102082.81;4962230;28;45294;-58
2021/10/13 00:10:08;;;;;;;;;10.50;10.50;;;;;13.18;85.96;102081.13;4961646;28;45361;-58
2021/10/13 00:12:34;;;;;;;;;11.75;11.00;;;;;13.16;86.59;102076.78;4961990;28;45365;-58
2021/10/13 00:15:05;;;;;;;;;10.50;9.75;;;;;13.16;86.18;102085.47;4962088;28;45338;-58
2021/10/13 00:17:30;;;;;;;;;10.00;10.00;;;;;13.15;87.28;102088.97;4960132;28;45471;-59
2021/10/13 00:19:57;;;;;;;;;5.00;4.75;;;;;13.14;87.00;102087.25;4962074;28;46294;-58
2021/10/13 00:22:22;;;;;;;;;14.75;11.00;;;;;13.13;87.08;102079.44;4961868;28;45883;-58
2021/10/13 00:24:48;;;;;;;;;11.50;10.00;;;;;13.12;87.31;102089.03;4962256;28;45327;-61
2021/10/13 00:27:13;;;;;;;;;6.75;6.00;;;;;13.07;87.63;102090.84;4961621;28;45257;-61
2021/10/13 00:29:39;;;;;;;;;9.75;9.75;;;;;13.08;87.14;102096.06;4961464;28;45732;-61
2021/10/13 00:32:05;;;;;;;;;14.50;11.50;;;;;13.10;87.42;102096.88;4961812;28;45268;-62
2021/10/13 00:34:31;;;;;;;;;10.00;9.50;;;;;13.09;88.03;102096.91;4962264;28;45612;-61
2021/10/13 00:36:57;;;;;;;;;11.25;10.00;;;;;13.08;87.33;102100.41;4961597;28;45398;-61
2021/10/13 00:39:22;;;;;;;;;14.25;11.00;;;;;13.07;87.61;102102.16;4961633;28;46044;-62
2021/10/13 00:41:48;;;;;;;;;17.25;12.25;;;;;13.02;87.21;102098.78;4944094;28;45275;-61
2021/10/13 00:44:13;;;;;;;;;12.25;10.75;;;;;13.00;87.96;102103.13;4961779;28;45314;-62
2021/10/13 00:46:38;;;;;;;;;16.75;11.75;;;;;12.89;88.82;102105.06;4961571;28;45286;-62
2021/10/13 00:49:04;;;;;;;;;10.50;10.00;;;;;12.83;88.96;102106.91;4961645;28;45356;-62
2021/10/13 00:51:30;;;;;;;;;10.75;10.25;;;;;12.76;89.40;102117.41;4944047;28;45834;-62
2021/10/13 00:53:56;;;;;;;;;14.00;8.75;;;;;12.72;89.13;102112.25;4961748;28;45478;-61
2021/10/13 00:56:22;;;;;;;;;11.00;11.00;;;;;12.70;89.63;102114.03;4961305;28;45260;-61
2021/10/13 00:58:47;;;;;;;;;16.25;12.50;;;;;12.66;88.27;102110.59;4961324;28;45629;-61
2021/10/13 01:01:38;;;;;;;;;12.00;10.00;;;;;12.62;89.04;102119.38;4943568;28;45362;-60
2021/10/13 01:04:09;;;;;;;;;11.25;11.25;;;;;12.57;89.56;102118.53;4961724;28;45337;-61
2021/10/13 01:06:52;;;;;;;;;10.75;10.25;;;;;12.53;91.16;102124.69;4961410;28;45359;-61
2021/10/13 01:09:23;;;;;;;;;11.50;11.50;;;;;12.52;89.34;102122.09;4960379;28;45491;-61
2021/10/13 01:12:53;;;;;;;;;5.00;3.25;;;;;12.51;91.09;102126.47;4961216;28;45290;-60
2021/10/13 01:15:21;;;;;;;;;11.50;11.50;;;;;12.44;91.44;102132.66;4874198;29;45549;-61
2021/10/13 01:18:05;;;;;;;;;12.00;11.25;;;;;12.38;90.41;102125.75;4960343;28;45268;-61
2021/10/13 01:20:52;;;;;;;;;16.00;11.75;;;;;12.33;89.57;102127.56;4961150;28;45405;-60
2021/10/13 01:23:24;;;;;;;;;12.75;10.50;;;;;12.29;90.69;102125.88;4961248;28;45615;-60
2021/10/13 01:26:10;;;;;;;;;13.00;10.00;;;;;12.25;91.19;102121.59;4960956;28;45478;-61
2021/10/13 01:28:38;;;;;;;;;20.50;13.50;;;;;12.23;90.24;102122.50;4960890;28;45344;-61
2021/10/13 01:31:11;;;;;;;;;11.50;9.75;;;;;12.18;89.28;102122.53;4961036;28;46267;-59
2021/10/13 01:33:40;;;;;;;;;12.75;9.75;;;;;12.18;89.34;102119.91;4960670;28;45767;-59
2021/10/13 01:36:08;;;;;;;;;12.25;10.25;;;;;12.16;89.53;102126.88;4960442;28;45404;-59
2021/10/13 01:38:41;;;;;;;;;12.25;10.00;;;;;12.12;89.57;102122.59;4960671;28;45476;-59
2021/10/13 01:41:08;;;;;;;;;8.75;8.50;;;;;12.09;89.87;102126.13;4960423;28;46161;-59
2021/10/13 01:43:38;;;;;;;;;14.00;11.75;;;;;12.08;89.04;102127.00;4959269;28;45429;-59
2021/10/13 01:46:06;;;;;;;;;10.00;10.00;;;;;12.02;88.24;102121.00;4960694;28;45307;-59
2021/10/13 01:48:33;;;;;;;;;10.25;10.00;;;;;11.99;88.41;102123.63;4960614;28;45281;-59
2021/10/13 01:51:00;;;;;;;;;10.00;9.00;;;;;11.99;89.27;102129.69;4960588;28;46472;-59
2021/10/13 01:53:27;;;;;;;;;13.75;9.25;;;;;11.98;88.01;102129.72;4960402;28;45786;-58
2021/10/13 01:55:55;;;;;;;;;8.50;8.00;;;;;11.94;88.53;102125.41;4960664;28;45268;-61
2021/10/13 01:58:21;;;;;;;;;7.25;5.00;;;;;11.91;88.41;102123.72;4947622;28;45249;-61
2021/10/13 02:00:51;;;;;;;;;11.75;9.75;;;;;11.91;88.51;102125.44;4960118;28;45441;-60
2021/10/13 02:03:20;;;;;;;;;8.25;7.75;;;;;11.87;87.68;102129.84;4960298;28;45283;-62
2021/10/13 02:05:48;;;;;;;;;11.25;8.00;;;;;11.85;88.16;102140.28;4960604;28;45226;-61
2021/10/13 02:08:14;;;;;;;;;5.50;5.50;;;;;11.81;88.17;102132.47;4949395;28;45460;-62
2021/10/13 02:10:43;;;;;;;;;9.75;9.25;;;;;11.79;88.26;102142.91;4948386;28;47082;-62
2021/10/13 02:13:10;;;;;;;;;8.00;8.00;;;;;11.78;88.17;102140.31;4960393;28;45256;-62
2021/10/13 02:15:37;;;;;;;;;6.25;5.00;;;;;11.75;89.00;102140.34;4959985;28;45298;-62
2021/10/13 02:18:03;;;;;;;;;9.00;7.25;;;;;11.72;88.17;102132.56;4943382;28;45497;-62
2021/10/13 02:20:30;;;;;;;;;11.00;7.75;;;;;11.67;87.75;102136.97;4960023;28;46364;-63
2021/10/13 02:22:59;;;;;;;;;8.50;8.50;;;;;11.62;88.26;102142.22;4960407;28;45276;-62
2021/10/13 02:25:32;;;;;;;;;8.75;5.00;;;;;11.57;88.50;102143.97;4960019;28;45398;-62
2021/10/13 02:28:01;;;;;;;;;9.50;6.50;;;;;11.52;88.44;102153.56;4960061;28;45256;-62
2021/10/13 02:30:27;;;;;;;;;7.50;4.75;;;;;11.47;88.52;102157.97;4959752;28;46387;-62
2021/10/13 02:32:52;;;;;;;;;9.25;9.00;;;;;11.43;88.32;102154.53;4960056;28;45375;-62
2021/10/13 02:35:17;;;;;;;;;11.25;7.75;;;;;11.43;88.21;102164.94;4959098;28;45388;-62
2021/10/13 02:37:43;;;;;;;;;9.50;7.00;;;;;11.40;88.27;102156.28;4956374;28;45383;-62
2021/10/13 02:40:09;;;;;;;;;11.75;8.50;;;;;11.39;88.00;102151.94;4941110;28;47238;-62
2021/10/13 02:42:36;;;;;;;;;10.50;8.50;;;;;11.38;88.41;102155.41;4957408;28;45500;-63
2021/10/13 02:45:02;;;;;;;;;5.75;3.25;;;;;11.38;88.30;102158.88;4939888;28;45661;-63
2021/10/13 02:47:35;;;;;;;;;11.00;7.50;;;;;11.37;88.23;102159.75;4958322;28;45739;-61
2021/10/13 02:50:19;;;;;;;;;14.25;9.25;;;;;11.38;88.72;102165.84;4960805;28;45828;-61
2021/10/13 02:53:08;;;;;;;;;10.25;8.75;;;;;11.34;88.56;102154.59;4961677;28;45493;-60
2021/10/13 02:55:42;;;;;;;;;11.75;10.00;;;;;11.38;88.61;102173.63;4962311;28;45638;-61
2021/10/13 02:58:21;;;;;;;;;14.50;12.25;;;;;11.38;88.79;102174.50;4959281;28;45696;-61
2021/10/13 03:00:48;;;;;;;;;10.00;8.50;;;;;11.36;88.64;102167.59;4960418;28;45611;-61
2021/10/13 03:03:38;;;;;;;;;14.00;9.00;;;;;11.34;88.73;102174.53;4960395;28;45398;-61
2021/10/13 03:06:05;;;;;;;;;10.75;8.75;;;;;11.31;88.71;102169.38;4960645;28;45641;-59
2021/10/13 03:08:34;;;;;;;;;13.75;9.75;;;;;11.31;88.64;102179.78;4960521;28;45489;-59
2021/10/13 03:11:02;;;;;;;;;8.75;6.75;;;;;11.27;88.63;102178.94;4959619;28;47139;-59
2021/10/13 03:13:32;;;;;;;;;9.00;8.00;;;;;11.26;88.74;102178.09;4945095;28;45899;-61
2021/10/13 03:16:00;;;;;;;;;8.50;7.25;;;;;11.23;88.93;102174.66;4962805;28;45281;-59
2021/10/13 03:18:26;;;;;;;;;9.50;5.25;;;;;11.21;88.70;102173.75;4962472;28;45240;-59
2021/10/13 03:20:53;;;;;;;;;8.75;8.75;;;;;11.18;89.17;102171.19;4962464;28;45256;-59
2021/10/13 03:23:19;;;;;;;;;7.00;7.00;;;;;11.16;88.57;102170.34;4962901;28;45215;-59
2021/10/13 03:25:45;;;;;;;;;10.50;8.00;;;;;11.14;88.69;102179.91;4961247;28;45293;-59
2021/10/13 03:28:13;;;;;;;;;8.50;7.25;;;;;11.13;88.92;102181.63;4962692;28;45231;-62
2021/10/13 03:30:38;;;;;;;;;8.00;8.00;;;;;11.11;88.70;102179.91;4962345;28;46388;-62
2021/10/13 03:33:04;;;;;;;;;3.50;2.75;;;;;11.11;88.51;102182.53;4962493;28;45312;-62
2021/10/13 03:35:31;;;;;;;;;9.00;7.25;;;;;11.10;88.45;102181.66;4962578;28;45361;-62
2021/10/13 03:37:59;;;;;;;;;7.75;5.75;;;;;11.08;87.96;102183.41;4962540;28;45389;-62
2021/10/13 03:40:26;;;;;;;;;9.00;7.25;;;;;11.06;87.89;102182.56;4961049;28;46497;-62
2021/10/13 03:42:52;;;;;;;;;11.50;8.25;;;;;11.04;87.72;102180.84;4962887;28;45992;-62
2021/10/13 03:45:19;;;;;;;;;11.25;9.75;;;;;11.06;87.80;102192.09;4961418;28;45491;-62
2021/10/13 03:47:46;;;;;;;;;10.00;8.25;;;;;11.05;88.15;102182.56;4962514;28;45306;-62
2021/10/13 03:50:13;;;;;;;;;11.25;10.75;;;;;11.04;87.86;102183.44;4962033;28;46404;-63
2021/10/13 03:52:40;;;;;;;;;17.00;14.00;;;;;11.03;87.49;102187.78;4961966;28;45175;-62
2021/10/13 03:55:08;;;;;;;;;10.75;9.00;;;;;11.02;87.76;102182.59;4962009;28;45345;-62
2021/10/13 03:57:33;;;;;;;;;15.75;11.00;;;;;11.00;88.03;102186.91;4962029;28;45425;-62
2021/10/13 03:59:59;;;;;;;;;10.00;8.75;;;;;11.01;88.13;102189.50;4961058;28;45350;-63
2021/10/13 04:02:24;;;;;;;;;9.75;9.75;;;;;10.95;87.89;102192.16;4961912;28;45319;-62
2021/10/13 04:04:50;;;;;;;;;22.00;18.25;;;;;10.93;87.80;102199.09;4961834;28;45683;-62
2021/10/13 04:07:15;;;;;;;;;17.00;13.00;;;;;10.92;88.06;102200.84;4961839;28;45332;-62
2021/10/13 04:09:41;;;;;;;;;15.25;12.25;;;;;10.90;88.38;102207.78;4960570;28;45672;-62
2021/10/13 04:12:07;;;;;;;;;17.50;14.50;;;;;10.90;88.27;102206.94;4962008;28;45244;-62
2021/10/13 04:14:32;;;;;;;;;16.25;12.50;;;;;10.90;87.92;102209.53;4961528;28;45530;-62
2021/10/13 04:16:58;;;;;;;;;15.00;10.75;;;;;10.87;87.64;102210.41;4959615;28;45526;-62
2021/10/13 04:19:23;;;;;;;;;12.00;9.50;;;;;10.86;87.77;102216.50;4948943;28;46287;-62
2021/10/13 04:21:49;;;;;;;;;10.25;9.00;;;;;10.87;88.00;102217.34;4961575;28;45200;-61
2021/10/13 04:24:14;;;;;;;;;10.00;8.50;;;;;10.85;88.03;102217.34;4961801;28;45179;-61
2021/10/13 04:26:40;;;;;;;;;16.50;12.75;;;;;10.81;87.62;102222.56;4961506;28;45172;-61
2021/10/13 04:29:05;;;;;;;;;10.00;8.75;;;;;10.83;87.68;102226.03;4961179;28;45432;-61
2021/10/13 04:31:31;;;;;;;;;13.00;11.00;;;;;10.82;87.95;102226.91;4961253;28;45422;-62
2021/10/13 04:33:56;;;;;;;;;10.25;8.50;;;;;10.81;87.67;102226.06;4961437;28;45338;-61
2021/10/13 04:36:21;;;;;;;;;13.50;13.50;;;;;10.80;87.79;102226.03;4961141;28;45304;-62
2021/10/13 04:38:47;;;;;;;;;10.75;8.75;;;;;10.80;87.73;102226.03;4961225;28;45343;-62
2021/10/13 04:41:12;;;;;;;;;11.25;10.00;;;;;10.79;87.75;102224.31;4961128;28;45664;-62
2021/10/13 04:43:37;;;;;;;;;9.00;7.50;;;;;10.80;87.22;102236.44;4958398;28;45361;-62
2021/10/13 04:46:03;;;;;;;;;8.00;7.75;;;;;10.79;87.02;102235.56;4961169;28;45327;-61
2021/10/13 04:48:28;;;;;;;;;11.50;10.00;;;;;10.76;87.30;102240.78;4960631;28;46391;-61
2021/10/13 04:50:53;;;;;;;;;9.75;9.75;;;;;10.76;87.17;102246.00;4960828;28;45333;-60
2021/10/13 04:53:19;;;;;;;;;8.75;7.75;;;;;10.74;87.19;102239.06;4961004;28;45498;-60
2021/10/13 04:55:44;;;;;;;;;11.50;9.00;;;;;10.73;86.94;102252.94;4960758;28;45502;-60
2021/10/13 04:58:15;;;;;;;;;16.50;13.50;;;;;10.73;87.49;102250.34;4960066;28;45433;-62
2021/10/13 05:00:41;;;;;;;;;19.00;12.00;;;;;10.72;87.02;102246.00;4960617;28;45908;-61
2021/10/13 05:03:06;;;;;;;;;12.00;9.00;;;;;10.70;87.39;102242.56;4959572;28;45406;-62
2021/10/13 05:05:32;;;;;;;;;13.50;12.00;;;;;10.70;87.64;102247.75;4958947;28;45454;-61
2021/10/13 05:07:57;;;;;;;;;9.25;7.75;;;;;10.65;87.85;102238.25;4956818;28;45777;-61
2021/10/13 05:10:23;;;;;;;;;14.25;9.50;;;;;10.67;87.95;102253.84;4955780;28;45703;-61
2021/10/13 05:12:49;;;;;;;;;10.00;10.00;;;;;10.62;87.74;102251.25;4959581;28;45472;-61
2021/10/13 05:15:14;;;;;;;;;10.25;9.25;;;;;10.62;88.79;102258.19;4942905;28;45557;-63
2021/10/13 05:17:39;;;;;;;;;10.75;9.75;;;;;10.60;88.01;102272.91;4959880;28;46178;-62
2021/10/13 05:20:06;;;;;;;;;14.00;10.50;;;;;10.59;88.28;102268.56;4957765;28;45447;-62
2021/10/13 05:22:31;;;;;;;;;7.75;7.75;;;;;10.56;88.01;102272.06;4958793;28;45540;-63
2021/10/13 05:24:56;;;;;;;;;9.50;7.75;;;;;10.53;88.38;102264.28;4959256;28;45307;-61
2021/10/13 05:27:22;;;;;;;;;9.75;7.00;;;;;10.49;88.60;102267.75;4959661;28;45342;-62
2021/10/13 05:29:48;;;;;;;;;12.00;9.00;;;;;10.44;87.88;102264.31;4959908;28;45269;-61
2021/10/13 05:32:13;;;;;;;;;15.50;13.75;;;;;10.45;88.07;102271.25;4960169;28;45216;-62
2021/10/13 05:34:38;;;;;;;;;13.00;10.50;;;;;10.46;88.10;102266.91;4960038;28;45209;-62
2021/10/13 05:37:04;;;;;;;;;14.00;10.00;;;;;10.47;88.33;102279.03;4960085;28;46294;-63
2021/10/13 05:39:29;;;;;;;;;12.25;12.00;;;;;10.46;88.25;102283.38;4958809;28;45817;-63
2021/10/13 05:41:55;;;;;;;;;13.25;9.00;;;;;10.47;88.29;102282.50;4959946;28;45161;-59
2021/10/13 05:44:20;;;;;;;;;21.00;15.50;;;;;10.47;88.06;102287.69;4942034;28;45881;-60
2021/10/13 05:46:45;;;;;;;;;14.00;13.25;;;;;10.47;88.32;102279.03;4959547;28;45459;-60
2021/10/13 05:49:11;;;;;;;;;12.75;11.50;;;;;10.47;88.02;102287.69;4959994;28;45433;-61
2021/10/13 05:51:36;;;;;;;;;15.00;11.50;;;;;10.46;88.18;102275.56;4959995;28;45658;-60
2021/10/13 05:54:02;;;;;;;;;18.25;10.00;;;;;10.45;88.17;102276.44;4959951;28;45281;-62
2021/10/13 05:56:27;;;;;;;;;20.00;19.00;;;;;10.45;87.88;102278.16;4959830;28;45883;-63
2021/10/13 05:58:54;;;;;;;;;13.00;10.00;;;;;10.43;88.51;102293.78;4959692;28;45415;-62
2021/10/13 06:01:20;;;;;;;;;11.00;10.00;;;;;10.42;88.47;102291.19;4958265;28;45348;-64
2021/10/13 06:03:46;;;;;;;;;14.50;10.25;;;;;10.43;87.90;102293.78;4960105;28;45248;-61
2021/10/13 06:06:11;;;;;;;;;6.75;2.50;;;;;10.42;88.03;102292.03;4959804;28;45700;-57
2021/10/13 06:08:37;;;;;;;;;15.25;13.50;;;;;10.43;88.34;102290.31;4958877;28;45382;-59
2021/10/13 06:11:02;;;;;;;;;14.50;12.00;;;;;10.42;88.47;102297.25;4959435;28;45164;-63
2021/10/13 06:13:28;;;;;;;;;11.50;10.50;;;;;10.41;88.18;102295.50;4959229;28;45272;-61
2021/10/13 06:15:53;;;;;;;;;18.25;13.00;;;;;10.44;88.45;102299.84;4959350;28;46276;-61
2021/10/13 06:18:19;;;;;;;;;16.00;13.50;;;;;10.46;88.29;102304.16;4959141;28;45397;-62
2021/10/13 06:20:45;;;;;;;;;11.50;9.25;;;;;10.47;88.81;102310.22;4942017;28;45276;-67
2021/10/13 06:23:10;;;;;;;;;19.75;13.75;;;;;10.48;88.50;102314.56;4962595;28;45255;-65
2021/10/13 06:25:36;;;;;;;;;18.75;10.00;;;;;10.52;89.04;102314.53;4962676;28;46836;-64
2021/10/13 06:28:01;;;;;;;;;19.25;14.75;;;;;10.56;88.62;102329.25;4962751;28;45310;-62
2021/10/13 06:30:32;;;;;;;;;16.75;12.50;;;;;10.58;88.71;102322.31;4962355;28;45370;-63
2021/10/13 06:32:57;;;;;;;;;28.00;18.75;;;;;10.62;88.15;102331.84;4961092;28;45612;-65
2021/10/13 06:35:23;;;;;;;;;18.75;14.50;;;;;10.68;88.09;102340.50;4962497;28;46173;-63
2021/10/13 06:37:49;;;;;;;;;14.25;12.00;;;;;10.69;88.06;102324.91;4962531;28;45229;-62
2021/10/13 06:40:14;;;;;;;;;20.25;14.00;;;;;10.74;87.80;102327.47;4962556;28;45229;-61
2021/10/13 06:42:41;;;;;;;;;15.75;12.25;;;;;10.77;88.03;102324.88;4962779;28;45482;-61
2021/10/13 06:45:08;;;;;;;;;17.75;12.00;;;;;10.81;88.03;102331.78;4962430;28;46493;-61
2021/10/13 06:47:33;;;;;;;;;17.25;12.25;;;;;10.85;87.65;102328.31;4962662;28;45781;-63
2021/10/13 06:50:00;;;;;;;;;13.25;12.00;;;;;10.88;87.61;102329.19;4963337;28;45568;-61
2021/10/13 06:52:25;;;;;;;;;11.50;10.00;;;;;10.90;87.26;102323.97;4962562;28;45491;-72
2021/10/13 06:54:51;;;;;;;;;22.50;19.00;;;;;10.97;87.60;102325.66;4962300;28;46361;-60
2021/10/13 06:57:16;;;;;;;;;16.25;10.00;;;;;11.01;87.32;102329.13;4962420;28;45215;-60
2021/10/13 06:59:42;;;;;;;;;29.00;18.50;;;;;11.01;87.19;102331.72;4962204;28;45298;-61
2021/10/13 07:02:07;;;;;;;;;11.25;11.25;;;;;11.01;87.61;102337.78;4962511;28;45400;-60
2021/10/13 07:04:34;;;;;;;;;11.00;10.00;;;;;11.00;87.55;102338.66;4962304;28;47368;-59
2021/10/13 07:06:59;;;;;;;;;14.00;10.00;;;;;10.98;87.44;102343.88;4962633;28;45285;-59
2021/10/13 07:09:25;;;;;;;;;14.00;11.00;;;;;11.00;87.07;102353.41;4962575;28;45427;-60
2021/10/13 07:11:50;;;;;;;;;15.25;13.75;;;;;11.06;87.42;102350.78;4962211;28;45220;-61
2021/10/13 07:14:17;;;;;;;;;10.50;8.75;;;;;11.10;87.23;102358.56;4961892;28;45247;-60
2021/10/13 07:16:45;;;;;;;;;20.75;13.75;;;;;11.15;87.36;102356.81;4962371;28;45451;-60
2021/10/13 07:19:11;;;;;;;;;14.50;12.25;;;;;11.21;86.79;102362.03;4960916;28;45347;-60
2021/10/13 07:21:36;;;;;;;;;14.25;13.25;;;;;11.25;87.16;102358.53;4962700;28;45548;-60
2021/10/13 07:24:02;;;;;;;;;13.25;11.00;;;;;11.28;86.63;102358.50;4961912;28;45367;-60
2021/10/13 07:26:27;;;;;;;;;14.25;10.00;;;;;11.33;86.44;102365.41;4961998;28;45287;-61
2021/10/13 07:28:53;;;;;;;;;13.25;13.25;;;;;11.38;86.37;102367.13;4961676;28;45303;-62
2021/10/13 07:31:18;;;;;;;;;14.00;11.25;;;;;11.43;85.96;102370.59;4961730;28;45296;-60
2021/10/13 07:33:43;;;;;;;;;19.00;12.00;;;;;11.49;86.00;102377.50;4960399;28;45414;-63
2021/10/13 07:36:10;;;;;;;;;14.75;10.75;;;;;11.54;85.06;102368.78;4962298;28;45231;-65
2021/10/13 07:38:35;;;;;;;;;15.75;15.00;;;;;11.58;85.34;102373.09;4962156;28;45340;-66
2021/10/13 07:41:01;;;;;;;;;37.50;22.00;;;;;11.69;85.26;102373.03;4961755;28;45535;-69
2021/10/13 07:43:28;;;;;;;;;17.00;10.50;;;;;11.79;84.87;102366.06;4961890;28;45655;-70
2021/10/13 07:45:53;;;;;;;;;13.75;9.25;;;;;11.87;84.82;102374.72;4961917;28;45236;-61
2021/10/13 07:48:18;;;;;;;;;8.75;4.50;;;;;11.94;84.23;102372.91;4961803;28;45713;-63
2021/10/13 07:50:44;;;;;;;;;13.25;12.25;;;;;12.01;83.07;102374.59;4959493;28;45445;-63
2021/10/13 07:53:09;;;;;;;;;11.50;9.25;;;;;12.05;83.51;102371.09;4960524;28;46363;-63
2021/10/13 07:55:35;;;;;;;;;15.00;14.50;;;;;12.09;83.16;102371.06;4961416;28;45331;-61
2021/10/13 07:58:00;;;;;;;;;22.50;17.25;;;;;12.21;82.83;102375.31;4961848;28;45365;-60
2021/10/13 08:00:26;;;;;;;;;11.75;11.25;;;;;12.26;82.05;102386.56;4961591;28;45370;-67
2021/10/13 08:02:51;;;;;;;;;16.75;13.50;;;;;12.32;81.85;102386.53;4961862;28;45331;-62
2021/10/13 08:05:17;;;;;;;;;14.75;10.75;;;;;12.38;81.28;102380.38;4962218;28;45224;-62
2021/10/13 08:07:46;;;;;;;;;27.00;17.75;;;;;12.44;80.55;102386.44;4961836;28;45168;-59
2021/10/13 08:10:13;;;;;;;;;26.00;18.00;;;;;12.48;80.96;102384.66;4961220;28;45400;-58
2021/10/13 08:12:39;;;;;;;;;31.00;23.00;;;;;12.52;80.11;102390.69;4961746;28;46198;-59
2021/10/13 08:15:05;;;;;;;;;20.50;16.75;;;;;12.57;80.16;102394.13;4961875;28;45446;-59
2021/10/13 08:17:30;;;;;;;;;32.00;26.75;;;;;12.65;80.07;102397.53;4961547;28;45290;-66
2021/10/13 08:19:55;;;;;;;;;25.25;18.25;;;;;12.69;79.79;102386.19;4961776;28;45321;-60
2021/10/13 08:22:22;;;;;;;;;22.00;17.00;;;;;12.75;78.81;102396.56;4961493;28;46419;-62
2021/10/13 08:24:47;;;;;;;;;25.00;16.25;;;;;12.80;77.64;102390.41;4961472;28;45564;-61
2021/10/13 08:27:13;;;;;;;;;20.00;17.00;;;;;12.88;78.07;102392.94;4961419;28;45474;-59
2021/10/13 08:29:38;;;;;;;;;26.75;21.50;;;;;12.97;78.21;102392.84;4960951;28;45449;-57
2021/10/13 08:32:04;;;;;;;;;25.75;20.25;;;;;13.07;77.81;102389.25;4961381;28;45589;-60
2021/10/13 08:34:30;;;;;;;;;17.25;13.25;;;;;13.13;76.79;102392.66;4961116;28;45304;-58
2021/10/13 08:36:55;;;;;;;;;11.00;10.50;;;;;13.17;76.74;102394.34;4961457;28;45521;-60
2021/10/13 08:39:21;;;;;;;;;13.75;11.75;;;;;13.18;75.39;102398.72;4961818;28;45300;-61
2021/10/13 08:41:46;;;;;;;;;15.25;10.00;;;;;13.20;75.89;102400.44;4960678;28;46234;-59
2021/10/13 08:44:13;;;;;;;;;10.50;4.00;;;;;13.24;75.42;102401.28;4961262;28;45358;-59
2021/10/13 08:46:38;;;;;;;;;22.75;21.00;;;;;13.27;74.69;102398.63;4960291;28;45564;-60
2021/10/13 08:49:05;;;;;;;;;13.00;9.25;;;;;13.32;73.90;102399.44;4961404;28;45362;-62
2021/10/13 08:51:34;;;;;;;;;13.00;11.50;;;;;13.34;73.71;102392.44;4961078;28;45629;-62
2021/10/13 08:54:00;;;;;;;;;22.50;13.25;;;;;13.49;74.18;102409.69;4961827;28;45445;-62
2021/10/13 08:56:25;;;;;;;;;13.25;11.75;;;;;13.61;73.82;102412.97;4960650;28;45630;-62
2021/10/13 08:58:51;;;;;;;;;18.75;12.75;;;;;13.70;71.48;102412.00;4960730;28;45248;-62
2021/10/13 09:01:16;;;;;;;;;13.25;12.50;;;;;13.74;72.60;102411.06;4957700;28;46172;-61
2021/10/13 09:03:44;;;;;;;;;15.50;11.00;;;;;13.88;72.71;102413.50;4960413;28;45383;-62
2021/10/13 09:06:29;;;;;;;;;10.50;7.75;;;;;13.99;71.70;102406.34;4960850;28;45459;-62
2021/10/13 09:09:13;;;;;;;;;12.50;12.00;;;;;14.11;71.80;102413.16;4959909;28;45279;-62
2021/10/13 09:11:42;;;;;;;;;12.25;10.75;;;;;14.18;71.81;102409.53;4948682;28;45531;-63
2021/10/13 09:14:10;;;;;;;;;12.50;11.75;;;;;14.24;70.05;102415.56;4960017;28;45480;-59
2021/10/13 09:17:05;;;;;;;;;21.50;15.00;;;;;14.36;70.69;102411.84;4960332;28;45225;-61
2021/10/13 09:19:33;;;;;;;;;14.75;11.75;;;;;14.47;70.23;102412.59;4960360;28;45534;-60
2021/10/13 09:22:03;;;;;;;;;7.50;6.50;;;;;14.57;69.29;102405.44;4960784;28;45725;-59
2021/10/13 09:24:31;;;;;;;;;14.50;8.25;;;;;14.72;68.78;102417.38;4960239;28;45262;-60
2021/10/13 09:27:15;;;;;;;;;7.00;6.00;;;;;14.73;65.96;102408.66;4960480;28;45279;-67
2021/10/13 09:29:42;;;;;;;;;9.50;6.75;;;;;14.87;69.02;102412.75;4942731;28;45212;-63
2021/10/13 09:32:07;;;;;;;;;10.75;6.25;;;;;14.91;67.02;102414.41;4958504;28;45598;-63
2021/10/13 09:34:32;;;;;;;;;2.50;2.00;;;;;14.96;67.63;102414.31;4942929;28;45250;-63
2021/10/13 09:37:01;;;;;;;;;10.00;8.75;;;;;15.04;67.24;102422.03;4960221;28;45324;-61
2021/10/13 09:39:30;;;;;;;;;8.00;6.00;;;;;15.17;66.85;102419.13;4960016;28;45246;-62
2021/10/13 09:42:04;;;;;;;;;8.50;7.75;;;;;15.32;66.32;102419.72;4960015;28;46303;-63
2021/10/13 09:44:33;;;;;;;;;11.25;6.75;;;;;15.51;65.80;102411.47;4958880;28;45819;-62
2021/10/13 09:47:02;;;;;;;;;6.00;5.00;;;;;15.69;65.12;102417.25;4959914;28;45427;-63
2021/10/13 09:49:33;;;;;;;;;5.00;5.00;;;;;15.85;62.57;102409.91;4960193;28;45360;-62
2021/10/13 09:52:05;;;;;;;;;17.25;8.00;;;;;16.25;61.56;102420.31;4959988;28;45468;-63
2021/10/13 09:54:30;;;;;;;;;7.75;6.00;;;;;16.30;62.22;102415.81;4959818;28;45502;-64
2021/10/13 09:56:56;;;;;;;;;8.25;6.00;;;;;16.34;61.72;102418.31;4936909;28;45393;-65
2021/10/13 09:59:22;;;;;;;;;12.75;6.75;;;;;16.39;62.38;102418.19;4959634;28;45440;-66
2021/10/13 10:01:52;;;;;;;;;6.75;6.75;;;;;16.51;62.29;102427.53;4959570;28;45462;-66
2021/10/13 10:04:21;;;;;;;;;6.25;5.00;;;;;16.57;58.24;102422.97;4959985;28;45237;-64
2021/10/13 10:06:56;;;;;;;;;5.50;4.50;;;;;16.74;61.99;102419.97;4959531;28;45406;-65
2021/10/13 10:09:26;;;;;;;;;6.75;4.75;;;;;17.20;57.41;102429.19;4959152;28;45509;-64
2021/10/13 10:12:07;;;;;;;;;7.50;5.75;;;;;18.57;58.59;102424.09;4959087;28;45449;-64
2021/10/13 10:14:33;;;;;;;;;11.00;7.00;;;;;19.06;56.08;102434.69;4958422;28;46017;-62
2021/10/13 10:17:00;;;;;;;;;6.75;3.75;;;;;19.04;55.42;102425.13;4957730;28;45455;-61
2021/10/13 10:19:29;;;;;;;;;7.50;5.00;;;;;18.74;55.88;102427.91;4959126;28;45409;-62
2021/10/13 10:21:55;;;;;;;;;7.50;5.25;;;;;18.53;54.99;102431.25;4955876;28;46577;-61
2021/10/13 10:24:37;;;;;;;;;6.50;5.50;;;;;18.57;56.34;102427.59;4954072;28;45321;-61
2021/10/13 10:27:24;;;;;;;;;7.25;5.75;;;;;18.77;55.58;102419.91;4958431;28;45295;-62
2021/10/13 10:30:15;;;;;;;;;4.50;4.25;;;;;18.81;54.77;102424.13;4958729;28;45276;-62
2021/10/13 10:33:04;;;;;;;;;5.50;4.25;;;;;18.72;53.61;102418.34;4947360;28;45377;-63
2021/10/13 10:35:41;;;;;;;;;4.25;3.50;;;;;18.32;52.27;102414.41;4958860;28;45232;-63
2021/10/13 10:38:07;;;;;;;;;6.25;4.00;;;;;18.00;53.57;102417.19;4941685;28;45382;-59
2021/10/13 10:40:36;;;;;;;;;4.50;4.00;;;;;17.84;53.23;102415.06;4958822;28;45393;-59
2021/10/13 10:43:17;;;;;;;;;4.00;4.00;;;;;18.29;51.85;102413.66;4958926;28;45572;-59
2021/10/13 10:45:54;;;;;;;;;4.75;3.75;;;;;19.14;52.21;102411.53;4959282;28;45710;-59
2021/10/13 10:48:40;;;;;;;;;4.00;3.75;;;;;19.08;52.07;102410.91;4957117;28;45361;-63
2021/10/13 10:51:05;;;;;;;;;7.75;5.25;;;;;19.13;49.49;102404.56;4956613;28;45924;-64
2021/10/13 10:53:33;;;;;;;;;7.00;3.00;;;;;19.19;51.82;102402.59;4958561;28;45310;-60
2021/10/13 10:56:22;;;;;;;;;7.25;3.00;;;;;19.26;49.19;102414.66;4958856;28;45775;-68
2021/10/13 10:59:11;;;;;;;;;2.00;2.00;;;;;19.54;49.46;102415.34;4959384;28;45527;-61
2021/10/13 11:01:38;;;;;;;;;4.50;4.00;;;;;21.08;48.94;102410.75;4958206;28;45454;-59
2021/10/13 11:04:09;;;;;;;;;5.00;4.00;;;;;21.60;47.49;102409.22;4958962;28;45573;-62
2021/10/13 11:06:36;;;;;;;;;2.75;1.50;;;;;21.18;41.43;102409.38;4958930;28;45596;-58
2021/10/13 11:09:08;;;;;;;;;0.00;0.00;;;;;21.58;35.94;102426.09;4959329;28;45430;-59
2021/10/13 11:11:42;;;;;;;;;2.00;1.00;;;;;21.41;43.26;102422.44;4949459;28;45271;-67
2021/10/13 11:17:01;;;;;;;;;3.25;1.25;;;;;21.22;44.51;102424.19;5113181;22;45267;-60
2021/10/13 11:19:34;;;;;;;;;5.25;3.00;;;;;20.53;43.13;102435.13;4989933;28;45720;-69
2021/10/13 11:22:04;;;;;;;;;7.25;3.75;;;;;19.83;44.81;102434.50;4998734;28;45459;-66
2021/10/13 11:24:31;;;;;;;;;2.00;2.00;;;;;19.29;45.32;102438.25;5000705;28;46479;-64